sensor_id;sensor_type;location;lat;lon;timestamp;P1;durP1;ratioP1;P2;durP2;ratioP2
78774;SDS011;68119;43.398;3.676;2023-12-20T00:01:25;2.58;;;2.20;;
78774;SDS011;68119;43.398;3.676;2023-12-20T00:03:54;4.63;;;2.25;;
78774;SDS011;68119;43.398;3.676;2023-12-20T00:06:26;2.85;;;2.00;;
78774;SDS011;68119;43.398;3.676;2023-12-20T00:08:55;2.70;;;2.10;;
78774;SDS011;68119;43.398;3.676;2023-12-20T00:11:25;2.92;;;2.17;;
78774;SDS011;68119;43.398;3.676;2023-12-20T00:13:57;2.83;;;2.22;;
78774;SDS011;68119;43.398;3.676;2023-12-20T00:16:28;4.50;;;2.22;;
78774;SDS011;68119;43.398;3.676;2023-12-20T00:18:59;3.15;;;2.20;;
78774;SDS011;68119;43.398;3.676;2023-12-20T00:21:26;2.75;;;2.10;;
78774;SDS011;68119;43.398;3.676;2023-12-20T00:24:00;2.95;;;2.22;;
78774;SDS011;68119;43.398;3.676;2023-12-20T00:26:29;2.95;;;2.50;;
78774;SDS011;68119;43.398;3.676;2023-12-20T00:29:00;2.85;;;2.47;;
78774;SDS011;68119;43.398;3.676;2023-12-20T00:31:29;4.45;;;2.30;;
78774;SDS011;68119;43.398;3.676;2023-12-20T00:33:57;7.43;;;5.40;;
78774;SDS011;68119;43.398;3.676;2023-12-20T00:36:26;3.70;;;2.47;;
78774;SDS011;68119;43.398;3.676;2023-12-20T00:38:55;7.88;;;3.85;;
78774;SDS011;68119;43.398;3.676;2023-12-20T00:41:26;7.35;;;4.10;;
78774;SDS011;68119;43.398;3.676;2023-12-20T00:43:53;7.78;;;4.03;;
78774;SDS011;68119;43.398;3.676;2023-12-20T00:46:22;4.00;;;2.80;;
78774;SDS011;68119;43.398;3.676;2023-12-20T00:48:49;5.57;;;2.30;;
78774;SDS011;68119;43.398;3.676;2023-12-20T00:51:19;3.83;;;2.80;;
78774;SDS011;68119;43.398;3.676;2023-12-20T00:53:47;4.57;;;2.40;;
78774;SDS011;68119;43.398;3.676;2023-12-20T00:56:14;4.55;;;2.50;;
78774;SDS011;68119;43.398;3.676;2023-12-20T00:58:43;4.03;;;2.40;;
78774;SDS011;68119;43.398;3.676;2023-12-20T01:01:12;7.97;;;2.70;;
78774;SDS011;68119;43.398;3.676;2023-12-20T01:03:43;4.53;;;2.40;;
78774;SDS011;68119;43.398;3.676;2023-12-20T01:06:10;4.18;;;2.28;;
78774;SDS011;68119;43.398;3.676;2023-12-20T01:08:42;3.53;;;2.00;;
78774;SDS011;68119;43.398;3.676;2023-12-20T01:11:13;5.63;;;2.33;;
78774;SDS011;68119;43.398;3.676;2023-12-20T01:13:39;5.95;;;2.33;;
78774;SDS011;68119;43.398;3.676;2023-12-20T01:16:10;4.93;;;2.65;;
78774;SDS011;68119;43.398;3.676;2023-12-20T01:18:49;5.13;;;2.45;;
78774;SDS011;68119;43.398;3.676;2023-12-20T01:21:18;2.65;;;1.80;;
78774;SDS011;68119;43.398;3.676;2023-12-20T01:23:44;3.88;;;2.40;;
78774;SDS011;68119;43.398;3.676;2023-12-20T01:26:16;3.60;;;2.70;;
78774;SDS011;68119;43.398;3.676;2023-12-20T01:28:42;3.33;;;2.13;;
78774;SDS011;68119;43.398;3.676;2023-12-20T01:31:08;3.75;;;2.53;;
78774;SDS011;68119;43.398;3.676;2023-12-20T01:33:35;5.63;;;3.03;;
78774;SDS011;68119;43.398;3.676;2023-12-20T01:36:05;3.20;;;2.30;;
78774;SDS011;68119;43.398;3.676;2023-12-20T01:38:34;3.00;;;2.40;;
78774;SDS011;68119;43.398;3.676;2023-12-20T01:41:02;3.08;;;2.10;;
78774;SDS011;68119;43.398;3.676;2023-12-20T01:43:45;3.45;;;2.25;;
78774;SDS011;68119;43.398;3.676;2023-12-20T01:46:13;4.90;;;2.22;;
78774;SDS011;68119;43.398;3.676;2023-12-20T01:48:40;3.45;;;2.38;;
78774;SDS011;68119;43.398;3.676;2023-12-20T01:51:12;2.80;;;2.22;;
78774;SDS011;68119;43.398;3.676;2023-12-20T01:53:43;3.00;;;2.30;;
78774;SDS011;68119;43.398;3.676;2023-12-20T01:56:10;2.20;;;2.00;;
78774;SDS011;68119;43.398;3.676;2023-12-20T01:58:42;2.70;;;2.20;;
78774;SDS011;68119;43.398;3.676;2023-12-20T02:01:17;2.75;;;2.08;;
78774;SDS011;68119;43.398;3.676;2023-12-20T02:03:46;2.75;;;2.10;;
78774;SDS011;68119;43.398;3.676;2023-12-20T02:06:12;3.50;;;2.40;;
78774;SDS011;68119;43.398;3.676;2023-12-20T02:08:41;3.95;;;2.00;;
78774;SDS011;68119;43.398;3.676;2023-12-20T02:11:10;3.03;;;2.08;;
78774;SDS011;68119;43.398;3.676;2023-12-20T02:13:39;2.38;;;1.95;;
78774;SDS011;68119;43.398;3.676;2023-12-20T02:16:08;2.67;;;2.20;;
78774;SDS011;68119;43.398;3.676;2023-12-20T02:18:37;2.45;;;2.10;;
78774;SDS011;68119;43.398;3.676;2023-12-20T02:21:09;3.58;;;2.05;;
78774;SDS011;68119;43.398;3.676;2023-12-20T02:23:38;2.40;;;2.10;;
78774;SDS011;68119;43.398;3.676;2023-12-20T02:26:10;2.55;;;2.05;;
78774;SDS011;68119;43.398;3.676;2023-12-20T02:28:41;4.45;;;2.10;;
78774;SDS011;68119;43.398;3.676;2023-12-20T02:31:16;2.30;;;2.10;;
78774;SDS011;68119;43.398;3.676;2023-12-20T02:33:42;3.58;;;2.30;;
78774;SDS011;68119;43.398;3.676;2023-12-20T02:36:08;2.30;;;2.10;;
78774;SDS011;68119;43.398;3.676;2023-12-20T02:38:39;2.08;;;1.88;;
78774;SDS011;68119;43.398;3.676;2023-12-20T02:41:11;2.08;;;1.88;;
78774;SDS011;68119;43.398;3.676;2023-12-20T02:46:31;2.13;;;1.95;;
78774;SDS011;68119;43.398;3.676;2023-12-20T02:49:00;2.08;;;1.90;;
78774;SDS011;68119;43.398;3.676;2023-12-20T02:51:31;2.08;;;1.83;;
78774;SDS011;68119;43.398;3.676;2023-12-20T02:53:59;2.20;;;2.00;;
78774;SDS011;68119;43.398;3.676;2023-12-20T02:56:28;2.40;;;2.20;;
78774;SDS011;68119;43.398;3.676;2023-12-20T02:59:02;2.90;;;2.28;;
78774;SDS011;68119;43.398;3.676;2023-12-20T03:01:31;2.42;;;2.03;;
78774;SDS011;68119;43.398;3.676;2023-12-20T03:04:00;2.10;;;1.90;;
78774;SDS011;68119;43.398;3.676;2023-12-20T03:06:26;2.40;;;2.00;;
78774;SDS011;68119;43.398;3.676;2023-12-20T03:08:52;2.00;;;1.90;;
78774;SDS011;68119;43.398;3.676;2023-12-20T03:11:21;1.95;;;1.85;;
78774;SDS011;68119;43.398;3.676;2023-12-20T03:13:52;2.00;;;1.80;;
78774;SDS011;68119;43.398;3.676;2023-12-20T03:16:23;1.80;;;1.70;;
78774;SDS011;68119;43.398;3.676;2023-12-20T03:19:00;1.98;;;1.85;;
78774;SDS011;68119;43.398;3.676;2023-12-20T03:21:31;2.05;;;1.88;;
78774;SDS011;68119;43.398;3.676;2023-12-20T03:23:57;2.10;;;1.90;;
78774;SDS011;68119;43.398;3.676;2023-12-20T03:29:16;1.75;;;1.58;;
78774;SDS011;68119;43.398;3.676;2023-12-20T03:31:42;1.70;;;1.60;;
78774;SDS011;68119;43.398;3.676;2023-12-20T03:34:08;1.70;;;1.60;;
78774;SDS011;68119;43.398;3.676;2023-12-20T03:36:40;1.65;;;1.55;;
78774;SDS011;68119;43.398;3.676;2023-12-20T03:39:11;1.77;;;1.67;;
78774;SDS011;68119;43.398;3.676;2023-12-20T03:41:42;1.60;;;1.50;;
78774;SDS011;68119;43.398;3.676;2023-12-20T03:44:11;1.60;;;1.50;;
78774;SDS011;68119;43.398;3.676;2023-12-20T03:46:40;1.45;;;1.35;;
78774;SDS011;68119;43.398;3.676;2023-12-20T03:49:10;1.55;;;1.45;;
78774;SDS011;68119;43.398;3.676;2023-12-20T03:54:24;1.70;;;1.60;;
78774;SDS011;68119;43.398;3.676;2023-12-20T03:56:55;1.52;;;1.42;;
78774;SDS011;68119;43.398;3.676;2023-12-20T03:59:46;1.50;;;1.40;;
78774;SDS011;68119;43.398;3.676;2023-12-20T04:02:12;1.75;;;1.58;;
78774;SDS011;68119;43.398;3.676;2023-12-20T04:04:43;1.83;;;1.63;;
78774;SDS011;68119;43.398;3.676;2023-12-20T04:07:11;1.50;;;1.40;;
78774;SDS011;68119;43.398;3.676;2023-12-20T04:09:40;2.15;;;1.50;;
78774;SDS011;68119;43.398;3.676;2023-12-20T04:12:11;1.60;;;1.50;;
78774;SDS011;68119;43.398;3.676;2023-12-20T04:14:40;2.00;;;1.60;;
78774;SDS011;68119;43.398;3.676;2023-12-20T04:17:06;1.65;;;1.55;;
78774;SDS011;68119;43.398;3.676;2023-12-20T04:19:41;1.73;;;1.60;;
78774;SDS011;68119;43.398;3.676;2023-12-20T04:22:10;1.73;;;1.63;;
78774;SDS011;68119;43.398;3.676;2023-12-20T04:24:43;1.60;;;1.48;;
78774;SDS011;68119;43.398;3.676;2023-12-20T04:29:41;1.60;;;1.50;;
78774;SDS011;68119;43.398;3.676;2023-12-20T04:32:07;1.50;;;1.38;;
78774;SDS011;68119;43.398;3.676;2023-12-20T04:34:36;1.60;;;1.38;;
78774;SDS011;68119;43.398;3.676;2023-12-20T04:37:10;1.80;;;1.70;;
78774;SDS011;68119;43.398;3.676;2023-12-20T04:39:39;1.50;;;1.40;;
78774;SDS011;68119;43.398;3.676;2023-12-20T04:42:11;1.33;;;1.20;;
78774;SDS011;68119;43.398;3.676;2023-12-20T04:44:40;1.40;;;1.30;;
78774;SDS011;68119;43.398;3.676;2023-12-20T04:47:11;1.33;;;1.27;;
78774;SDS011;68119;43.398;3.676;2023-12-20T04:49:46;1.25;;;1.15;;
78774;SDS011;68119;43.398;3.676;2023-12-20T04:52:18;1.20;;;1.20;;
78774;SDS011;68119;43.398;3.676;2023-12-20T04:54:47;1.40;;;1.40;;
78774;SDS011;68119;43.398;3.676;2023-12-20T04:57:15;1.13;;;1.08;;
78774;SDS011;68119;43.398;3.676;2023-12-20T04:59:44;1.35;;;1.25;;
78774;SDS011;68119;43.398;3.676;2023-12-20T05:02:15;1.25;;;1.15;;
78774;SDS011;68119;43.398;3.676;2023-12-20T05:04:42;1.30;;;1.00;;
78774;SDS011;68119;43.398;3.676;2023-12-20T05:07:11;1.67;;;0.80;;
78774;SDS011;68119;43.398;3.676;2023-12-20T05:09:45;1.10;;;1.10;;
78774;SDS011;68119;43.398;3.676;2023-12-20T05:12:19;1.20;;;1.20;;
78774;SDS011;68119;43.398;3.676;2023-12-20T05:17:14;1.00;;;1.00;;
78774;SDS011;68119;43.398;3.676;2023-12-20T05:19:46;1.13;;;1.02;;
78774;SDS011;68119;43.398;3.676;2023-12-20T05:22:15;1.10;;;1.10;;
78774;SDS011;68119;43.398;3.676;2023-12-20T05:24:48;1.23;;;1.00;;
78774;SDS011;68119;43.398;3.676;2023-12-20T05:27:17;1.20;;;1.10;;
78774;SDS011;68119;43.398;3.676;2023-12-20T05:29:43;1.00;;;1.00;;
78774;SDS011;68119;43.398;3.676;2023-12-20T05:32:17;1.15;;;1.15;;
78774;SDS011;68119;43.398;3.676;2023-12-20T05:34:46;0.88;;;0.73;;
78774;SDS011;68119;43.398;3.676;2023-12-20T05:37:15;0.65;;;0.65;;
78774;SDS011;68119;43.398;3.676;2023-12-20T05:39:44;0.80;;;0.80;;
78774;SDS011;68119;43.398;3.676;2023-12-20T05:42:12;2.05;;;1.08;;
78774;SDS011;68119;43.398;3.676;2023-12-20T05:44:41;1.35;;;0.80;;
78774;SDS011;68119;43.398;3.676;2023-12-20T05:47:12;1.20;;;0.90;;
78774;SDS011;68119;43.398;3.676;2023-12-20T05:49:43;0.70;;;0.70;;
78774;SDS011;68119;43.398;3.676;2023-12-20T05:52:15;0.80;;;0.80;;
78774;SDS011;68119;43.398;3.676;2023-12-20T05:54:46;0.80;;;0.80;;
78774;SDS011;68119;43.398;3.676;2023-12-20T05:57:30;1.05;;;0.90;;
78774;SDS011;68119;43.398;3.676;2023-12-20T05:59:56;1.75;;;1.00;;
78774;SDS011;68119;43.398;3.676;2023-12-20T06:02:23;0.90;;;0.90;;
78774;SDS011;68119;43.398;3.676;2023-12-20T06:04:57;1.05;;;0.80;;
78774;SDS011;68119;43.398;3.676;2023-12-20T06:07:27;1.67;;;0.75;;
78774;SDS011;68119;43.398;3.676;2023-12-20T06:09:55;0.75;;;0.75;;
78774;SDS011;68119;43.398;3.676;2023-12-20T06:12:22;0.55;;;0.55;;
78774;SDS011;68119;43.398;3.676;2023-12-20T06:14:52;0.80;;;0.80;;
78774;SDS011;68119;43.398;3.676;2023-12-20T06:17:22;0.98;;;0.85;;
78774;SDS011;68119;43.398;3.676;2023-12-20T06:19:56;1.75;;;1.00;;
78774;SDS011;68119;43.398;3.676;2023-12-20T06:22:28;0.60;;;0.60;;
78774;SDS011;68119;43.398;3.676;2023-12-20T06:24:56;0.70;;;0.70;;
78774;SDS011;68119;43.398;3.676;2023-12-20T06:27:27;0.98;;;0.60;;
78774;SDS011;68119;43.398;3.676;2023-12-20T06:30:09;0.57;;;0.57;;
78774;SDS011;68119;43.398;3.676;2023-12-20T06:32:45;0.52;;;0.40;;
78774;SDS011;68119;43.398;3.676;2023-12-20T06:35:17;0.73;;;0.70;;
78774;SDS011;68119;43.398;3.676;2023-12-20T06:37:46;0.50;;;0.50;;
78774;SDS011;68119;43.398;3.676;2023-12-20T06:40:18;0.55;;;0.50;;
78774;SDS011;68119;43.398;3.676;2023-12-20T06:42:54;0.50;;;0.50;;
78774;SDS011;68119;43.398;3.676;2023-12-20T06:45:27;1.73;;;0.50;;
78774;SDS011;68119;43.398;3.676;2023-12-20T06:47:56;3.97;;;0.70;;
78774;SDS011;68119;43.398;3.676;2023-12-20T06:50:26;1.92;;;0.75;;
78774;SDS011;68119;43.398;3.676;2023-12-20T06:52:55;0.52;;;0.45;;
78774;SDS011;68119;43.398;3.676;2023-12-20T06:55:24;0.88;;;0.60;;
78774;SDS011;68119;43.398;3.676;2023-12-20T06:57:50;1.55;;;0.60;;
78774;SDS011;68119;43.398;3.676;2023-12-20T07:00:37;1.13;;;0.50;;
78774;SDS011;68119;43.398;3.676;2023-12-20T07:03:06;1.40;;;0.40;;
78774;SDS011;68119;43.398;3.676;2023-12-20T07:05:37;1.20;;;1.10;;
78774;SDS011;68119;43.398;3.676;2023-12-20T07:08:09;0.75;;;0.73;;
78774;SDS011;68119;43.398;3.676;2023-12-20T07:10:38;1.65;;;0.70;;
78774;SDS011;68119;43.398;3.676;2023-12-20T07:13:06;0.90;;;0.77;;
78774;SDS011;68119;43.398;3.676;2023-12-20T07:15:38;1.23;;;0.60;;
78774;SDS011;68119;43.398;3.676;2023-12-20T07:18:07;0.40;;;0.40;;
78774;SDS011;68119;43.398;3.676;2023-12-20T07:20:35;2.70;;;0.77;;
78774;SDS011;68119;43.398;3.676;2023-12-20T07:23:15;0.88;;;0.63;;
78774;SDS011;68119;43.398;3.676;2023-12-20T07:25:55;1.88;;;1.02;;
78774;SDS011;68119;43.398;3.676;2023-12-20T07:28:25;0.98;;;0.70;;
78774;SDS011;68119;43.398;3.676;2023-12-20T07:30:54;0.40;;;0.40;;
78774;SDS011;68119;43.398;3.676;2023-12-20T07:33:24;1.10;;;1.00;;
78774;SDS011;68119;43.398;3.676;2023-12-20T07:35:55;2.38;;;1.70;;
78774;SDS011;68119;43.398;3.676;2023-12-20T07:38:23;0.98;;;0.70;;
78774;SDS011;68119;43.398;3.676;2023-12-20T07:40:55;4.10;;;2.03;;
78774;SDS011;68119;43.398;3.676;2023-12-20T07:43:26;1.67;;;1.42;;
78774;SDS011;68119;43.398;3.676;2023-12-20T07:45:52;1.83;;;0.90;;
78774;SDS011;68119;43.398;3.676;2023-12-20T07:48:24;1.08;;;0.55;;
78774;SDS011;68119;43.398;3.676;2023-12-20T07:50:52;0.98;;;0.88;;
78774;SDS011;68119;43.398;3.676;2023-12-20T07:53:19;1.55;;;0.70;;
78774;SDS011;68119;43.398;3.676;2023-12-20T07:55:50;1.17;;;0.82;;
78774;SDS011;68119;43.398;3.676;2023-12-20T07:58:18;3.65;;;1.10;;
78774;SDS011;68119;43.398;3.676;2023-12-20T08:00:47;6.15;;;1.20;;
78774;SDS011;68119;43.398;3.676;2023-12-20T08:03:16;2.95;;;1.60;;
78774;SDS011;68119;43.398;3.676;2023-12-20T08:05:44;3.22;;;2.00;;
78774;SDS011;68119;43.398;3.676;2023-12-20T08:08:13;4.68;;;2.00;;
78774;SDS011;68119;43.398;3.676;2023-12-20T08:10:42;1.35;;;1.23;;
78774;SDS011;68119;43.398;3.676;2023-12-20T08:13:10;3.22;;;1.40;;
78774;SDS011;68119;43.398;3.676;2023-12-20T08:15:39;5.53;;;1.90;;
78774;SDS011;68119;43.398;3.676;2023-12-20T08:18:05;2.40;;;1.50;;
78774;SDS011;68119;43.398;3.676;2023-12-20T08:20:35;1.00;;;0.90;;
78774;SDS011;68119;43.398;3.676;2023-12-20T08:23:04;2.67;;;0.88;;
78774;SDS011;68119;43.398;3.676;2023-12-20T08:25:32;1.30;;;0.98;;
78774;SDS011;68119;43.398;3.676;2023-12-20T08:28:01;1.92;;;0.80;;
78774;SDS011;68119;43.398;3.676;2023-12-20T08:30:28;1.88;;;0.90;;
78774;SDS011;68119;43.398;3.676;2023-12-20T08:32:54;1.00;;;0.85;;
78774;SDS011;68119;43.398;3.676;2023-12-20T08:35:26;3.40;;;1.10;;
78774;SDS011;68119;43.398;3.676;2023-12-20T08:37:52;2.03;;;0.98;;
78774;SDS011;68119;43.398;3.676;2023-12-20T08:40:21;2.25;;;0.93;;
78774;SDS011;68119;43.398;3.676;2023-12-20T08:42:47;3.17;;;1.00;;
78774;SDS011;68119;43.398;3.676;2023-12-20T08:45:16;3.10;;;1.25;;
78774;SDS011;68119;43.398;3.676;2023-12-20T08:47:47;1.75;;;1.10;;
78774;SDS011;68119;43.398;3.676;2023-12-20T08:50:25;1.75;;;1.23;;
78774;SDS011;68119;43.398;3.676;2023-12-20T08:52:54;2.50;;;1.13;;
78774;SDS011;68119;43.398;3.676;2023-12-20T08:55:23;2.00;;;1.23;;
78774;SDS011;68119;43.398;3.676;2023-12-20T08:57:54;3.72;;;1.50;;
78774;SDS011;68119;43.398;3.676;2023-12-20T09:00:20;1.45;;;1.20;;
78774;SDS011;68119;43.398;3.676;2023-12-20T09:02:51;1.13;;;1.00;;
78774;SDS011;68119;43.398;3.676;2023-12-20T09:05:20;1.35;;;0.80;;
78774;SDS011;68119;43.398;3.676;2023-12-20T09:07:49;0.85;;;0.85;;
78774;SDS011;68119;43.398;3.676;2023-12-20T09:10:17;4.40;;;0.98;;
78774;SDS011;68119;43.398;3.676;2023-12-20T09:12:50;1.27;;;0.80;;
78774;SDS011;68119;43.398;3.676;2023-12-20T09:15:23;1.60;;;1.08;;
78774;SDS011;68119;43.398;3.676;2023-12-20T09:17:49;2.15;;;0.90;;
78774;SDS011;68119;43.398;3.676;2023-12-20T09:20:16;0.88;;;0.70;;
78774;SDS011;68119;43.398;3.676;2023-12-20T09:22:43;0.75;;;0.75;;
78774;SDS011;68119;43.398;3.676;2023-12-20T09:25:12;1.15;;;0.63;;
78774;SDS011;68119;43.398;3.676;2023-12-20T09:27:41;3.25;;;0.90;;
78774;SDS011;68119;43.398;3.676;2023-12-20T09:30:10;3.80;;;0.80;;
78774;SDS011;68119;43.398;3.676;2023-12-20T09:32:38;4.35;;;1.05;;
78774;SDS011;68119;43.398;3.676;2023-12-20T09:35:09;1.35;;;1.00;;
78774;SDS011;68119;43.398;3.676;2023-12-20T09:37:42;2.20;;;1.00;;
78774;SDS011;68119;43.398;3.676;2023-12-20T09:40:14;0.95;;;0.85;;
78774;SDS011;68119;43.398;3.676;2023-12-20T09:43:01;2.83;;;1.20;;
78774;SDS011;68119;43.398;3.676;2023-12-20T09:45:31;1.42;;;0.80;;
78774;SDS011;68119;43.398;3.676;2023-12-20T09:47:58;1.50;;;1.00;;
78774;SDS011;68119;43.398;3.676;2023-12-20T09:53:09;0.77;;;0.75;;
78774;SDS011;68119;43.398;3.676;2023-12-20T09:55:44;1.80;;;0.85;;
78774;SDS011;68119;43.398;3.676;2023-12-20T09:58:13;3.60;;;1.20;;
78774;SDS011;68119;43.398;3.676;2023-12-20T10:00:42;2.22;;;1.60;;
78774;SDS011;68119;43.398;3.676;2023-12-20T10:03:11;1.85;;;1.60;;
78774;SDS011;68119;43.398;3.676;2023-12-20T10:05:45;3.95;;;1.63;;
78774;SDS011;68119;43.398;3.676;2023-12-20T10:08:54;2.25;;;1.40;;
78774;SDS011;68119;43.398;3.676;2023-12-20T10:11:20;2.58;;;1.02;;
78774;SDS011;68119;43.398;3.676;2023-12-20T10:13:49;1.58;;;1.20;;
78774;SDS011;68119;43.398;3.676;2023-12-20T10:16:18;2.45;;;1.10;;
78774;SDS011;68119;43.398;3.676;2023-12-20T10:18:47;1.98;;;1.15;;
78774;SDS011;68119;43.398;3.676;2023-12-20T10:21:18;1.30;;;0.82;;
78774;SDS011;68119;43.398;3.676;2023-12-20T10:23:49;8.65;;;1.35;;
78774;SDS011;68119;43.398;3.676;2023-12-20T10:26:22;1.15;;;0.98;;
78774;SDS011;68119;43.398;3.676;2023-12-20T10:28:54;2.28;;;1.17;;
78774;SDS011;68119;43.398;3.676;2023-12-20T10:31:33;1.90;;;1.00;;
78774;SDS011;68119;43.398;3.676;2023-12-20T10:34:05;1.23;;;0.82;;
78774;SDS011;68119;43.398;3.676;2023-12-20T10:36:34;2.45;;;1.25;;
78774;SDS011;68119;43.398;3.676;2023-12-20T10:39:18;1.10;;;1.00;;
78774;SDS011;68119;43.398;3.676;2023-12-20T10:41:45;1.20;;;1.00;;
78774;SDS011;68119;43.398;3.676;2023-12-20T10:44:17;1.98;;;1.30;;
78774;SDS011;68119;43.398;3.676;2023-12-20T10:46:50;2.90;;;1.25;;
78774;SDS011;68119;43.398;3.676;2023-12-20T10:49:23;1.67;;;1.23;;
78774;SDS011;68119;43.398;3.676;2023-12-20T10:51:52;1.27;;;0.85;;
78774;SDS011;68119;43.398;3.676;2023-12-20T10:54:25;2.67;;;0.98;;
78774;SDS011;68119;43.398;3.676;2023-12-20T10:56:56;1.60;;;0.77;;
78774;SDS011;68119;43.398;3.676;2023-12-20T10:59:25;1.52;;;0.90;;
78774;SDS011;68119;43.398;3.676;2023-12-20T11:01:56;1.13;;;0.80;;
78774;SDS011;68119;43.398;3.676;2023-12-20T11:04:31;1.63;;;0.88;;
78774;SDS011;68119;43.398;3.676;2023-12-20T11:07:02;2.47;;;0.88;;
78774;SDS011;68119;43.398;3.676;2023-12-20T11:12:24;1.00;;;0.90;;
78774;SDS011;68119;43.398;3.676;2023-12-20T11:15:08;1.63;;;0.88;;
78774;SDS011;68119;43.398;3.676;2023-12-20T11:17:38;0.82;;;0.68;;
78774;SDS011;68119;43.398;3.676;2023-12-20T11:20:10;2.00;;;1.05;;
78774;SDS011;68119;43.398;3.676;2023-12-20T11:22:52;2.75;;;1.35;;
78774;SDS011;68119;43.398;3.676;2023-12-20T11:25:19;1.95;;;1.10;;
78774;SDS011;68119;43.398;3.676;2023-12-20T11:28:09;1.10;;;1.00;;
78774;SDS011;68119;43.398;3.676;2023-12-20T11:30:52;2.42;;;1.25;;
78774;SDS011;68119;43.398;3.676;2023-12-20T11:33:26;2.65;;;1.30;;
78774;SDS011;68119;43.398;3.676;2023-12-20T11:35:58;2.58;;;1.60;;
78774;SDS011;68119;43.398;3.676;2023-12-20T11:38:27;2.60;;;1.27;;
78774;SDS011;68119;43.398;3.676;2023-12-20T11:43:40;5.63;;;1.20;;
78774;SDS011;68119;43.398;3.676;2023-12-20T11:46:09;2.28;;;1.13;;
78774;SDS011;68119;43.398;3.676;2023-12-20T11:48:39;1.13;;;1.00;;
78774;SDS011;68119;43.398;3.676;2023-12-20T11:51:12;0.80;;;0.68;;
78774;SDS011;68119;43.398;3.676;2023-12-20T11:53:43;1.13;;;0.90;;
78774;SDS011;68119;43.398;3.676;2023-12-20T11:56:22;1.20;;;1.08;;
78774;SDS011;68119;43.398;3.676;2023-12-20T11:58:48;1.38;;;0.88;;
78774;SDS011;68119;43.398;3.676;2023-12-20T12:01:20;1.05;;;0.95;;
78774;SDS011;68119;43.398;3.676;2023-12-20T12:04:01;2.78;;;1.08;;
78774;SDS011;68119;43.398;3.676;2023-12-20T12:06:28;2.13;;;1.08;;
78774;SDS011;68119;43.398;3.676;2023-12-20T12:08:59;0.75;;;0.70;;
78774;SDS011;68119;43.398;3.676;2023-12-20T12:11:30;1.23;;;0.60;;
78774;SDS011;68119;43.398;3.676;2023-12-20T12:14:01;0.98;;;0.80;;
78774;SDS011;68119;43.398;3.676;2023-12-20T12:16:29;2.13;;;1.00;;
78774;SDS011;68119;43.398;3.676;2023-12-20T12:18:56;1.58;;;1.10;;
78774;SDS011;68119;43.398;3.676;2023-12-20T12:21:25;3.38;;;1.08;;
78774;SDS011;68119;43.398;3.676;2023-12-20T12:24:12;2.53;;;0.75;;
78774;SDS011;68119;43.398;3.676;2023-12-20T12:26:40;3.58;;;1.15;;
78774;SDS011;68119;43.398;3.676;2023-12-20T12:29:07;3.17;;;1.30;;
78774;SDS011;68119;43.398;3.676;2023-12-20T12:31:36;1.48;;;1.02;;
78774;SDS011;68119;43.398;3.676;2023-12-20T12:34:02;1.30;;;0.95;;
78774;SDS011;68119;43.398;3.676;2023-12-20T12:36:34;2.05;;;1.23;;
78774;SDS011;68119;43.398;3.676;2023-12-20T12:39:03;1.98;;;1.23;;
78774;SDS011;68119;43.398;3.676;2023-12-20T12:41:39;1.33;;;0.73;;
78774;SDS011;68119;43.398;3.676;2023-12-20T12:44:05;2.30;;;1.20;;
78774;SDS011;68119;43.398;3.676;2023-12-20T12:46:36;3.75;;;1.20;;
78774;SDS011;68119;43.398;3.676;2023-12-20T12:49:02;5.57;;;1.23;;
78774;SDS011;68119;43.398;3.676;2023-12-20T12:51:29;1.77;;;1.10;;
78774;SDS011;68119;43.398;3.676;2023-12-20T12:54:00;4.03;;;1.10;;
78774;SDS011;68119;43.398;3.676;2023-12-20T12:56:27;3.97;;;1.08;;
78774;SDS011;68119;43.398;3.676;2023-12-20T12:58:53;3.53;;;1.48;;
78774;SDS011;68119;43.398;3.676;2023-12-20T13:01:20;2.55;;;1.10;;
78774;SDS011;68119;43.398;3.676;2023-12-20T13:03:46;2.75;;;1.48;;
78774;SDS011;68119;43.398;3.676;2023-12-20T13:06:12;3.88;;;1.42;;
78774;SDS011;68119;43.398;3.676;2023-12-20T13:08:38;2.33;;;1.17;;
78774;SDS011;68119;43.398;3.676;2023-12-20T13:11:07;5.80;;;1.40;;
78774;SDS011;68119;43.398;3.676;2023-12-20T13:13:38;2.60;;;1.23;;
78774;SDS011;68119;43.398;3.676;2023-12-20T13:16:09;1.80;;;1.10;;
78774;SDS011;68119;43.398;3.676;2023-12-20T13:18:36;3.88;;;1.50;;
78774;SDS011;68119;43.398;3.676;2023-12-20T13:21:09;3.15;;;1.10;;
78774;SDS011;68119;43.398;3.676;2023-12-20T13:26:04;1.45;;;1.10;;
78774;SDS011;68119;43.398;3.676;2023-12-20T13:28:33;1.38;;;1.05;;
78774;SDS011;68119;43.398;3.676;2023-12-20T13:31:02;4.45;;;1.20;;
78774;SDS011;68119;43.398;3.676;2023-12-20T13:33:31;2.28;;;1.40;;
78774;SDS011;68119;43.398;3.676;2023-12-20T13:35:57;1.70;;;1.08;;
78774;SDS011;68119;43.398;3.676;2023-12-20T13:38:24;5.53;;;1.23;;
78774;SDS011;68119;43.398;3.676;2023-12-20T13:40:50;1.23;;;1.10;;
78774;SDS011;68119;43.398;3.676;2023-12-20T13:43:22;1.95;;;1.23;;
78774;SDS011;68119;43.398;3.676;2023-12-20T13:45:52;3.65;;;1.05;;
78774;SDS011;68119;43.398;3.676;2023-12-20T13:48:23;1.85;;;1.17;;
78774;SDS011;68119;43.398;3.676;2023-12-20T13:51:00;2.38;;;1.23;;
78774;SDS011;68119;43.398;3.676;2023-12-20T13:53:27;2.13;;;1.45;;
78774;SDS011;68119;43.398;3.676;2023-12-20T13:55:56;2.25;;;1.40;;
78774;SDS011;68119;43.398;3.676;2023-12-20T13:58:25;1.60;;;1.30;;
78774;SDS011;68119;43.398;3.676;2023-12-20T14:00:51;2.85;;;1.20;;
78774;SDS011;68119;43.398;3.676;2023-12-20T14:03:17;1.30;;;1.10;;
78774;SDS011;68119;43.398;3.676;2023-12-20T14:05:48;1.75;;;1.00;;
78774;SDS011;68119;43.398;3.676;2023-12-20T14:08:20;1.63;;;1.13;;
78774;SDS011;68119;43.398;3.676;2023-12-20T14:10:51;1.00;;;0.90;;
78774;SDS011;68119;43.398;3.676;2023-12-20T14:13:20;3.22;;;1.30;;
78774;SDS011;68119;43.398;3.676;2023-12-20T14:15:49;1.17;;;1.15;;
78774;SDS011;68119;43.398;3.676;2023-12-20T14:18:15;2.25;;;1.17;;
78774;SDS011;68119;43.398;3.676;2023-12-20T14:20:43;1.15;;;1.00;;
78774;SDS011;68119;43.398;3.676;2023-12-20T14:23:12;2.67;;;1.27;;
78774;SDS011;68119;43.398;3.676;2023-12-20T14:25:41;2.33;;;1.40;;
78774;SDS011;68119;43.398;3.676;2023-12-20T14:28:12;2.03;;;1.00;;
78774;SDS011;68119;43.398;3.676;2023-12-20T14:30:41;3.28;;;1.40;;
78774;SDS011;68119;43.398;3.676;2023-12-20T14:33:10;2.45;;;1.27;;
78774;SDS011;68119;43.398;3.676;2023-12-20T14:35:39;4.53;;;1.65;;
78774;SDS011;68119;43.398;3.676;2023-12-20T14:38:07;2.03;;;1.40;;
78774;SDS011;68119;43.398;3.676;2023-12-20T14:40:40;4.68;;;1.60;;
78774;SDS011;68119;43.398;3.676;2023-12-20T14:43:07;3.08;;;1.50;;
78774;SDS011;68119;43.398;3.676;2023-12-20T14:45:33;1.98;;;1.40;;
78774;SDS011;68119;43.398;3.676;2023-12-20T14:48:02;2.33;;;1.55;;
78774;SDS011;68119;43.398;3.676;2023-12-20T14:50:28;3.08;;;1.45;;
78774;SDS011;68119;43.398;3.676;2023-12-20T14:52:56;3.50;;;1.40;;
78774;SDS011;68119;43.398;3.676;2023-12-20T14:55:28;2.38;;;1.45;;
78774;SDS011;68119;43.398;3.676;2023-12-20T14:58:05;2.75;;;1.50;;
78774;SDS011;68119;43.398;3.676;2023-12-20T15:00:34;2.03;;;1.27;;
78774;SDS011;68119;43.398;3.676;2023-12-20T15:03:03;1.73;;;1.52;;
78774;SDS011;68119;43.398;3.676;2023-12-20T15:05:30;5.55;;;1.83;;
78774;SDS011;68119;43.398;3.676;2023-12-20T15:07:56;1.73;;;1.42;;
78774;SDS011;68119;43.398;3.676;2023-12-20T15:10:26;3.70;;;1.58;;
78774;SDS011;68119;43.398;3.676;2023-12-20T15:12:55;1.92;;;1.50;;
78774;SDS011;68119;43.398;3.676;2023-12-20T15:15:21;3.28;;;1.58;;
78774;SDS011;68119;43.398;3.676;2023-12-20T15:18:03;4.35;;;1.88;;
78774;SDS011;68119;43.398;3.676;2023-12-20T15:20:29;3.65;;;1.70;;
78774;SDS011;68119;43.398;3.676;2023-12-20T15:23:00;4.88;;;1.90;;
78774;SDS011;68119;43.398;3.676;2023-12-20T15:25:32;2.47;;;1.50;;
78774;SDS011;68119;43.398;3.676;2023-12-20T15:28:01;5.35;;;1.73;;
78774;SDS011;68119;43.398;3.676;2023-12-20T15:30:28;5.13;;;1.83;;